sensor_id;sensor_type;location;lat;lon;timestamp;temperature;humidity
29813;DHT22;16707;48.106;11.548;2022-12-18T00:00:00;-2.70;99.90
29813;DHT22;16707;48.106;11.548;2022-12-18T00:02:27;-3.00;99.90
29813;DHT22;16707;48.106;11.548;2022-12-18T00:04:54;-3.00;99.90
29813;DHT22;16707;48.106;11.548;2022-12-18T00:07:21;-3.00;99.90
29813;DHT22;16707;48.106;11.548;2022-12-18T00:09:48;-3.00;99.90
29813;DHT22;16707;48.106;11.548;2022-12-18T00:12:15;-3.10;99.90
29813;DHT22;16707;48.106;11.548;2022-12-18T00:14:42;-3.20;99.90
29813;DHT22;16707;48.106;11.548;2022-12-18T00:17:10;-3.10;99.90
29813;DHT22;16707;48.106;11.548;2022-12-18T00:19:37;-3.00;99.90
29813;DHT22;16707;48.106;11.548;2022-12-18T00:22:06;-3.00;99.90
29813;DHT22;16707;48.106;11.548;2022-12-18T00:24:33;-3.00;99.90
29813;DHT22;16707;48.106;11.548;2022-12-18T00:27:00;-2.90;99.90
29813;DHT22;16707;48.106;11.548;2022-12-18T00:29:27;-2.90;99.90
29813;DHT22;16707;48.106;11.548;2022-12-18T00:31:54;-2.90;99.90
29813;DHT22;16707;48.106;11.548;2022-12-18T00:34:22;-3.00;99.90
29813;DHT22;16707;48.106;11.548;2022-12-18T00:36:50;-3.20;99.90
29813;DHT22;16707;48.106;11.548;2022-12-18T00:39:17;-3.00;99.90
29813;DHT22;16707;48.106;11.548;2022-12-18T00:41:47;-2.90;99.90
29813;DHT22;16707;48.106;11.548;2022-12-18T00:44:35;-2.80;99.90
29813;DHT22;16707;48.106;11.548;2022-12-18T00:47:05;-2.80;99.90
29813;DHT22;16707;48.106;11.548;2022-12-18T00:49:33;-2.80;99.90
29813;DHT22;16707;48.106;11.548;2022-12-18T00:52:02;-2.80;99.90
29813;DHT22;16707;48.106;11.548;2022-12-18T00:54:35;-2.70;99.90
29813;DHT22;16707;48.106;11.548;2022-12-18T00:57:07;-2.70;99.90
29813;DHT22;16707;48.106;11.548;2022-12-18T00:59:34;-2.80;99.90
29813;DHT22;16707;48.106;11.548;2022-12-18T01:02:04;-2.90;99.90
29813;DHT22;16707;48.106;11.548;2022-12-18T01:04:33;-3.00;99.90
29813;DHT22;16707;48.106;11.548;2022-12-18T01:07:05;-2.90;99.90
29813;DHT22;16707;48.106;11.548;2022-12-18T01:09:32;-2.80;99.90
29813;DHT22;16707;48.106;11.548;2022-12-18T01:12:04;-3.00;99.90
29813;DHT22;16707;48.106;11.548;2022-12-18T01:14:31;-2.90;99.90
29813;DHT22;16707;48.106;11.548;2022-12-18T01:16:58;-3.10;99.90
29813;DHT22;16707;48.106;11.548;2022-12-18T01:19:30;-3.10;99.90
29813;DHT22;16707;48.106;11.548;2022-12-18T01:22:01;-3.10;99.90
29813;DHT22;16707;48.106;11.548;2022-12-18T01:24:28;-3.10;99.90
29813;DHT22;16707;48.106;11.548;2022-12-18T01:26:55;-3.00;99.90
29813;DHT22;16707;48.106;11.548;2022-12-18T01:29:25;-3.00;99.90
29813;DHT22;16707;48.106;11.548;2022-12-18T01:31:55;-3.00;99.90
29813;DHT22;16707;48.106;11.548;2022-12-18T01:34:22;-2.90;99.90
29813;DHT22;16707;48.106;11.548;2022-12-18T01:36:54;-3.00;99.90
29813;DHT22;16707;48.106;11.548;2022-12-18T01:39:22;-3.00;99.90
29813;DHT22;16707;48.106;11.548;2022-12-18T01:41:50;-3.10;99.90
29813;DHT22;16707;48.106;11.548;2022-12-18T01:47:38;-3.10;99.90
29813;DHT22;16707;48.106;11.548;2022-12-18T01:50:11;-3.00;99.90
29813;DHT22;16707;48.106;11.548;2022-12-18T01:52:44;-2.90;99.90
29813;DHT22;16707;48.106;11.548;2022-12-18T01:55:18;-2.90;99.90
29813;DHT22;16707;48.106;11.548;2022-12-18T01:57:46;-3.00;99.90
29813;DHT22;16707;48.106;11.548;2022-12-18T02:00:16;-3.00;99.90
29813;DHT22;16707;48.106;11.548;2022-12-18T02:02:44;-3.10;99.90
29813;DHT22;16707;48.106;11.548;2022-12-18T02:05:16;-3.10;99.90
29813;DHT22;16707;48.106;11.548;2022-12-18T02:07:55;-3.10;99.90
29813;DHT22;16707;48.106;11.548;2022-12-18T02:10:38;-3.30;99.90
29813;DHT22;16707;48.106;11.548;2022-12-18T02:13:14;-3.20;99.90
29813;DHT22;16707;48.106;11.548;2022-12-18T02:15:51;-3.20;99.90
29813;DHT22;16707;48.106;11.548;2022-12-18T02:18:26;-3.10;99.90
29813;DHT22;16707;48.106;11.548;2022-12-18T02:20:59;-3.20;99.90
29813;DHT22;16707;48.106;11.548;2022-12-18T02:23:40;-3.10;99.90
29813;DHT22;16707;48.106;11.548;2022-12-18T02:26:15;-3.20;99.90
29813;DHT22;16707;48.106;11.548;2022-12-18T02:28:46;-3.30;99.90
29813;DHT22;16707;48.106;11.548;2022-12-18T02:31:17;-3.30;99.90
29813;DHT22;16707;48.106;11.548;2022-12-18T02:33:46;-3.30;99.90
29813;DHT22;16707;48.106;11.548;2022-12-18T02:36:16;-3.20;99.90
29813;DHT22;16707;48.106;11.548;2022-12-18T02:38:47;-3.20;99.90
29813;DHT22;16707;48.106;11.548;2022-12-18T02:41:16;-3.20;99.90
29813;DHT22;16707;48.106;11.548;2022-12-18T02:43:53;-3.30;99.90
29813;DHT22;16707;48.106;11.548;2022-12-18T02:46:29;-3.30;99.90
29813;DHT22;16707;48.106;11.548;2022-12-18T02:49:05;-3.30;99.90
29813;DHT22;16707;48.106;11.548;2022-12-18T02:51:44;-3.20;99.90
29813;DHT22;16707;48.106;11.548;2022-12-18T02:54:21;-3.10;99.90
29813;DHT22;16707;48.106;11.548;2022-12-18T02:56:54;-3.10;99.90
29813;DHT22;16707;48.106;11.548;2022-12-18T02:59:30;-3.20;99.90
29813;DHT22;16707;48.106;11.548;2022-12-18T03:02:02;-3.20;99.90
29813;DHT22;16707;48.106;11.548;2022-12-18T03:04:38;-3.10;99.90
29813;DHT22;16707;48.106;11.548;2022-12-18T03:07:10;-3.10;99.90
29813;DHT22;16707;48.106;11.548;2022-12-18T03:09:42;-3.00;99.90
29813;DHT22;16707;48.106;11.548;2022-12-18T03:12:17;-3.00;99.90
29813;DHT22;16707;48.106;11.548;2022-12-18T03:14:57;-2.90;99.90
29813;DHT22;16707;48.106;11.548;2022-12-18T03:17:27;-3.00;99.90
29813;DHT22;16707;48.106;11.548;2022-12-18T03:20:00;-3.00;99.90
29813;DHT22;16707;48.106;11.548;2022-12-18T03:22:31;-3.00;99.90
29813;DHT22;16707;48.106;11.548;2022-12-18T03:25:01;-3.10;99.90
29813;DHT22;16707;48.106;11.548;2022-12-18T03:27:32;-3.20;99.90
29813;DHT22;16707;48.106;11.548;2022-12-18T03:30:03;-3.20;99.90
29813;DHT22;16707;48.106;11.548;2022-12-18T03:32:38;-3.10;99.90
29813;DHT22;16707;48.106;11.548;2022-12-18T03:35:08;-3.30;99.90
29813;DHT22;16707;48.106;11.548;2022-12-18T03:37:37;-3.30;99.90
29813;DHT22;16707;48.106;11.548;2022-12-18T03:40:05;-3.30;99.90
29813;DHT22;16707;48.106;11.548;2022-12-18T03:42:40;-3.20;99.90
29813;DHT22;16707;48.106;11.548;2022-12-18T03:45:11;-3.10;99.90
29813;DHT22;16707;48.106;11.548;2022-12-18T03:47:44;-3.00;99.90
29813;DHT22;16707;48.106;11.548;2022-12-18T03:50:19;-3.00;99.90
29813;DHT22;16707;48.106;11.548;2022-12-18T03:52:51;-3.10;99.90
29813;DHT22;16707;48.106;11.548;2022-12-18T03:55:21;-3.10;99.90
29813;DHT22;16707;48.106;11.548;2022-12-18T03:57:52;-3.00;99.90
29813;DHT22;16707;48.106;11.548;2022-12-18T04:00:19;-3.00;99.90
29813;DHT22;16707;48.106;11.548;2022-12-18T04:02:50;-3.10;99.90
29813;DHT22;16707;48.106;11.548;2022-12-18T04:05:20;-3.00;99.90
29813;DHT22;16707;48.106;11.548;2022-12-18T04:07:49;-3.00;99.90
29813;DHT22;16707;48.106;11.548;2022-12-18T04:10:22;-2.90;99.90
29813;DHT22;16707;48.106;11.548;2022-12-18T04:12:55;-3.00;99.90
29813;DHT22;16707;48.106;11.548;2022-12-18T04:15:23;-3.00;99.90
29813;DHT22;16707;48.106;11.548;2022-12-18T04:17:52;-3.00;99.90
29813;DHT22;16707;48.106;11.548;2022-12-18T04:20:21;-3.00;99.90
29813;DHT22;16707;48.106;11.548;2022-12-18T04:22:48;-3.00;99.90
29813;DHT22;16707;48.106;11.548;2022-12-18T04:25:18;-3.20;99.90
29813;DHT22;16707;48.106;11.548;2022-12-18T04:27:45;-3.10;99.90
29813;DHT22;16707;48.106;11.548;2022-12-18T04:30:14;-3.10;99.90
29813;DHT22;16707;48.106;11.548;2022-12-18T04:32:41;-3.20;99.90
29813;DHT22;16707;48.106;11.548;2022-12-18T04:35:08;-3.10;99.90
29813;DHT22;16707;48.106;11.548;2022-12-18T04:37:36;-3.00;99.90
29813;DHT22;16707;48.106;11.548;2022-12-18T04:40:07;-3.00;99.90
29813;DHT22;16707;48.106;11.548;2022-12-18T04:42:34;-2.90;99.90
29813;DHT22;16707;48.106;11.548;2022-12-18T04:45:01;-3.00;99.90
29813;DHT22;16707;48.106;11.548;2022-12-18T04:47:30;-2.90;99.90
29813;DHT22;16707;48.106;11.548;2022-12-18T04:49:57;-2.90;99.90
29813;DHT22;16707;48.106;11.548;2022-12-18T04:52:35;-3.00;99.90
29813;DHT22;16707;48.106;11.548;2022-12-18T04:55:04;-3.10;99.90
29813;DHT22;16707;48.106;11.548;2022-12-18T04:57:33;-3.20;99.90
29813;DHT22;16707;48.106;11.548;2022-12-18T05:00:00;-3.10;99.90
29813;DHT22;16707;48.106;11.548;2022-12-18T05:02:37;-3.20;99.90
29813;DHT22;16707;48.106;11.548;2022-12-18T05:05:05;-3.30;99.90
29813;DHT22;16707;48.106;11.548;2022-12-18T05:07:38;-3.10;99.90
29813;DHT22;16707;48.106;11.548;2022-12-18T05:10:09;-3.00;99.90
29813;DHT22;16707;48.106;11.548;2022-12-18T05:12:38;-3.10;99.90
29813;DHT22;16707;48.106;11.548;2022-12-18T05:15:24;-3.10;99.90
29813;DHT22;16707;48.106;11.548;2022-12-18T05:17:52;-3.30;99.90
29813;DHT22;16707;48.106;11.548;2022-12-18T05:20:19;-3.30;99.90
29813;DHT22;16707;48.106;11.548;2022-12-18T05:22:47;-3.30;99.90
29813;DHT22;16707;48.106;11.548;2022-12-18T05:25:16;-3.30;99.90
29813;DHT22;16707;48.106;11.548;2022-12-18T05:27:44;-3.30;99.90
29813;DHT22;16707;48.106;11.548;2022-12-18T05:30:12;-3.30;99.90
29813;DHT22;16707;48.106;11.548;2022-12-18T05:32:40;-3.20;99.90
29813;DHT22;16707;48.106;11.548;2022-12-18T05:35:09;-3.10;99.90
29813;DHT22;16707;48.106;11.548;2022-12-18T05:37:37;-3.10;99.90
29813;DHT22;16707;48.106;11.548;2022-12-18T05:40:05;-3.10;99.90
29813;DHT22;16707;48.106;11.548;2022-12-18T05:42:32;-3.10;99.90
29813;DHT22;16707;48.106;11.548;2022-12-18T05:44:59;-3.00;99.90
29813;DHT22;16707;48.106;11.548;2022-12-18T05:47:32;-3.00;99.90
29813;DHT22;16707;48.106;11.548;2022-12-18T05:50:00;-3.00;99.90
29813;DHT22;16707;48.106;11.548;2022-12-18T05:52:28;-2.90;99.90
29813;DHT22;16707;48.106;11.548;2022-12-18T05:54:55;-2.90;99.90
29813;DHT22;16707;48.106;11.548;2022-12-18T05:57:22;-2.90;99.90
29813;DHT22;16707;48.106;11.548;2022-12-18T05:59:49;-3.00;99.90
29813;DHT22;16707;48.106;11.548;2022-12-18T06:02:16;-3.00;99.90
29813;DHT22;16707;48.106;11.548;2022-12-18T06:04:42;-3.20;99.90
29813;DHT22;16707;48.106;11.548;2022-12-18T06:07:09;-3.20;99.90
29813;DHT22;16707;48.106;11.548;2022-12-18T06:09:38;-3.10;99.90
29813;DHT22;16707;48.106;11.548;2022-12-18T06:12:06;-3.00;99.90
29813;DHT22;16707;48.106;11.548;2022-12-18T06:14:33;-2.90;99.90
29813;DHT22;16707;48.106;11.548;2022-12-18T06:17:02;-3.00;99.90
29813;DHT22;16707;48.106;11.548;2022-12-18T06:19:29;-2.90;99.90
29813;DHT22;16707;48.106;11.548;2022-12-18T06:21:56;-3.00;99.90
29813;DHT22;16707;48.106;11.548;2022-12-18T06:24:24;-3.00;99.90
29813;DHT22;16707;48.106;11.548;2022-12-18T06:26:53;-2.90;99.90
29813;DHT22;16707;48.106;11.548;2022-12-18T06:29:20;-3.00;99.90
29813;DHT22;16707;48.106;11.548;2022-12-18T06:31:47;-3.00;99.90
29813;DHT22;16707;48.106;11.548;2022-12-18T06:34:14;-3.00;99.90
29813;DHT22;16707;48.106;11.548;2022-12-18T06:36:41;-3.10;99.90
29813;DHT22;16707;48.106;11.548;2022-12-18T06:39:08;-3.10;99.90
29813;DHT22;16707;48.106;11.548;2022-12-18T06:41:35;-3.10;99.90
29813;DHT22;16707;48.106;11.548;2022-12-18T06:44:03;-3.10;99.90
29813;DHT22;16707;48.106;11.548;2022-12-18T06:46:33;-3.30;99.90
29813;DHT22;16707;48.106;11.548;2022-12-18T06:49:01;-3.30;99.90
29813;DHT22;16707;48.106;11.548;2022-12-18T06:51:28;-3.30;99.90
29813;DHT22;16707;48.106;11.548;2022-12-18T06:53:55;-3.20;99.90
29813;DHT22;16707;48.106;11.548;2022-12-18T06:56:22;-3.10;99.90
29813;DHT22;16707;48.106;11.548;2022-12-18T06:58:48;-3.10;99.90
29813;DHT22;16707;48.106;11.548;2022-12-18T07:01:19;-3.30;99.90
29813;DHT22;16707;48.106;11.548;2022-12-18T07:03:46;-3.20;99.90
29813;DHT22;16707;48.106;11.548;2022-12-18T07:06:15;-3.30;99.90
29813;DHT22;16707;48.106;11.548;2022-12-18T07:08:42;-3.20;99.90
29813;DHT22;16707;48.106;11.548;2022-12-18T07:11:09;-3.40;99.90
29813;DHT22;16707;48.106;11.548;2022-12-18T07:13:36;-3.50;99.90
29813;DHT22;16707;48.106;11.548;2022-12-18T07:16:05;-3.50;99.90
29813;DHT22;16707;48.106;11.548;2022-12-18T07:18:33;-3.60;99.90
29813;DHT22;16707;48.106;11.548;2022-12-18T07:21:03;-3.40;99.90
29813;DHT22;16707;48.106;11.548;2022-12-18T07:23:31;-3.50;99.90
29813;DHT22;16707;48.106;11.548;2022-12-18T07:26:01;-3.30;99.90
29813;DHT22;16707;48.106;11.548;2022-12-18T07:28:28;-3.30;99.90
29813;DHT22;16707;48.106;11.548;2022-12-18T07:30:58;-3.20;99.90
29813;DHT22;16707;48.106;11.548;2022-12-18T07:33:25;-3.00;99.90
29813;DHT22;16707;48.106;11.548;2022-12-18T07:35:58;-3.00;99.90
29813;DHT22;16707;48.106;11.548;2022-12-18T07:38:25;-3.20;99.90
29813;DHT22;16707;48.106;11.548;2022-12-18T07:40:52;-3.30;99.90
29813;DHT22;16707;48.106;11.548;2022-12-18T07:43:19;-3.00;99.90
29813;DHT22;16707;48.106;11.548;2022-12-18T07:45:49;-3.00;99.90
29813;DHT22;16707;48.106;11.548;2022-12-18T07:48:16;-3.00;99.90
29813;DHT22;16707;48.106;11.548;2022-12-18T07:50:43;-3.10;99.90
29813;DHT22;16707;48.106;11.548;2022-12-18T07:53:11;-2.90;99.90
29813;DHT22;16707;48.106;11.548;2022-12-18T07:55:38;-3.00;99.90
29813;DHT22;16707;48.106;11.548;2022-12-18T07:58:05;-3.10;99.90
29813;DHT22;16707;48.106;11.548;2022-12-18T08:00:31;-3.20;99.90
29813;DHT22;16707;48.106;11.548;2022-12-18T08:02:58;-3.20;99.90
29813;DHT22;16707;48.106;11.548;2022-12-18T08:05:28;-3.10;99.90
29813;DHT22;16707;48.106;11.548;2022-12-18T08:07:55;-2.90;99.90
29813;DHT22;16707;48.106;11.548;2022-12-18T08:10:25;-2.90;99.90
29813;DHT22;16707;48.106;11.548;2022-12-18T08:12:52;-2.80;99.90
29813;DHT22;16707;48.106;11.548;2022-12-18T08:15:21;-2.70;99.90
29813;DHT22;16707;48.106;11.548;2022-12-18T08:17:49;-2.70;99.90
29813;DHT22;16707;48.106;11.548;2022-12-18T08:20:16;-2.60;99.90
29813;DHT22;16707;48.106;11.548;2022-12-18T08:22:43;-2.60;99.90
29813;DHT22;16707;48.106;11.548;2022-12-18T08:25:10;-2.50;99.90
29813;DHT22;16707;48.106;11.548;2022-12-18T08:27:39;-2.30;99.90
29813;DHT22;16707;48.106;11.548;2022-12-18T08:30:10;-2.20;99.90
29813;DHT22;16707;48.106;11.548;2022-12-18T08:32:38;-2.10;99.90
29813;DHT22;16707;48.106;11.548;2022-12-18T08:35:05;-2.20;99.90
29813;DHT22;16707;48.106;11.548;2022-12-18T08:37:33;-2.30;99.90
29813;DHT22;16707;48.106;11.548;2022-12-18T08:40:00;-2.30;99.90
29813;DHT22;16707;48.106;11.548;2022-12-18T08:42:27;-2.20;99.90
29813;DHT22;16707;48.106;11.548;2022-12-18T08:45:10;-2.20;99.90
29813;DHT22;16707;48.106;11.548;2022-12-18T08:47:37;-2.10;99.90
29813;DHT22;16707;48.106;11.548;2022-12-18T08:50:04;-2.20;99.90
29813;DHT22;16707;48.106;11.548;2022-12-18T08:52:32;-2.10;99.90
29813;DHT22;16707;48.106;11.548;2022-12-18T08:54:58;-2.20;99.90
29813;DHT22;16707;48.106;11.548;2022-12-18T08:57:25;-2.10;99.90
29813;DHT22;16707;48.106;11.548;2022-12-18T08:59:52;-2.10;99.90
29813;DHT22;16707;48.106;11.548;2022-12-18T09:02:21;-2.10;99.90
29813;DHT22;16707;48.106;11.548;2022-12-18T09:04:47;-2.10;99.90
29813;DHT22;16707;48.106;11.548;2022-12-18T09:07:14;-2.20;99.90
29813;DHT22;16707;48.106;11.548;2022-12-18T09:09:41;-2.50;99.90
29813;DHT22;16707;48.106;11.548;2022-12-18T09:12:08;-2.50;99.90
29813;DHT22;16707;48.106;11.548;2022-12-18T09:14:35;-2.50;99.90
29813;DHT22;16707;48.106;11.548;2022-12-18T09:17:05;-2.40;99.90
29813;DHT22;16707;48.106;11.548;2022-12-18T09:19:33;-2.30;99.90
29813;DHT22;16707;48.106;11.548;2022-12-18T09:22:00;-2.20;99.90
29813;DHT22;16707;48.106;11.548;2022-12-18T09:24:27;-2.10;99.90
29813;DHT22;16707;48.106;11.548;2022-12-18T09:26:54;-2.00;99.90
29813;DHT22;16707;48.106;11.548;2022-12-18T09:29:21;-1.80;99.90
29813;DHT22;16707;48.106;11.548;2022-12-18T09:31:49;-1.70;99.90
29813;DHT22;16707;48.106;11.548;2022-12-18T09:34:16;-1.60;99.90
29813;DHT22;16707;48.106;11.548;2022-12-18T09:36:45;-1.40;99.90
29813;DHT22;16707;48.106;11.548;2022-12-18T09:39:12;-1.40;99.90
29813;DHT22;16707;48.106;11.548;2022-12-18T09:41:46;-1.60;99.90
29813;DHT22;16707;48.106;11.548;2022-12-18T09:44:22;-1.70;99.90
29813;DHT22;16707;48.106;11.548;2022-12-18T09:46:56;-2.00;99.90
29813;DHT22;16707;48.106;11.548;2022-12-18T09:49:28;-2.30;99.90
29813;DHT22;16707;48.106;11.548;2022-12-18T09:52:04;-2.50;99.90
29813;DHT22;16707;48.106;11.548;2022-12-18T09:54:37;-2.30;99.90
29813;DHT22;16707;48.106;11.548;2022-12-18T09:57:11;-2.10;99.90
29813;DHT22;16707;48.106;11.548;2022-12-18T09:59:41;-1.90;99.90
29813;DHT22;16707;48.106;11.548;2022-12-18T10:02:16;-1.80;99.90
29813;DHT22;16707;48.106;11.548;2022-12-18T10:04:46;-1.70;99.90
29813;DHT22;16707;48.106;11.548;2022-12-18T10:07:21;-1.60;99.90
29813;DHT22;16707;48.106;11.548;2022-12-18T10:09:55;-1.60;99.90
29813;DHT22;16707;48.106;11.548;2022-12-18T10:12:32;-1.50;99.90
29813;DHT22;16707;48.106;11.548;2022-12-18T10:15:04;-1.70;99.90
29813;DHT22;16707;48.106;11.548;2022-12-18T10:17:42;-1.80;99.90
29813;DHT22;16707;48.106;11.548;2022-12-18T10:20:20;-2.10;99.90
29813;DHT22;16707;48.106;11.548;2022-12-18T10:22:57;-1.80;99.90
29813;DHT22;16707;48.106;11.548;2022-12-18T10:25:31;-1.70;99.90
29813;DHT22;16707;48.106;11.548;2022-12-18T10:28:08;-1.50;99.90
29813;DHT22;16707;48.106;11.548;2022-12-18T10:30:38;-1.70;99.90
29813;DHT22;16707;48.106;11.548;2022-12-18T10:33:08;-1.70;99.90
29813;DHT22;16707;48.106;11.548;2022-12-18T10:35:41;-2.10;99.90
29813;DHT22;16707;48.106;11.548;2022-12-18T10:38:22;-2.10;99.90
29813;DHT22;16707;48.106;11.548;2022-12-18T10:40:52;-1.90;99.90
29813;DHT22;16707;48.106;11.548;2022-12-18T10:43:24;-1.70;99.90
29813;DHT22;16707;48.106;11.548;2022-12-18T10:46:00;-1.30;99.90
29813;DHT22;16707;48.106;11.548;2022-12-18T10:48:28;-1.50;99.90
29813;DHT22;16707;48.106;11.548;2022-12-18T10:51:00;-1.30;99.90
29813;DHT22;16707;48.106;11.548;2022-12-18T10:53:30;-1.40;99.90
29813;DHT22;16707;48.106;11.548;2022-12-18T10:56:02;-1.20;99.90
29813;DHT22;16707;48.106;11.548;2022-12-18T10:58:32;-0.90;99.90
29813;DHT22;16707;48.106;11.548;2022-12-18T11:01:09;-0.90;99.90
29813;DHT22;16707;48.106;11.548;2022-12-18T11:03:38;-0.70;99.90
29813;DHT22;16707;48.106;11.548;2022-12-18T11:06:10;-1.00;99.90
29813;DHT22;16707;48.106;11.548;2022-12-18T11:08:39;-1.40;99.90
29813;DHT22;16707;48.106;11.548;2022-12-18T11:11:19;-1.40;99.90
29813;DHT22;16707;48.106;11.548;2022-12-18T11:13:53;-1.30;99.90
29813;DHT22;16707;48.106;11.548;2022-12-18T11:16:23;-1.20;99.90
29813;DHT22;16707;48.106;11.548;2022-12-18T11:18:50;-1.20;99.90
29813;DHT22;16707;48.106;11.548;2022-12-18T11:21:17;-1.10;99.90
29813;DHT22;16707;48.106;11.548;2022-12-18T11:23:49;-0.90;99.90
29813;DHT22;16707;48.106;11.548;2022-12-18T11:26:17;-0.90;99.90
29813;DHT22;16707;48.106;11.548;2022-12-18T11:28:46;-0.70;99.90
29813;DHT22;16707;48.106;11.548;2022-12-18T11:31:31;-0.80;99.90
29813;DHT22;16707;48.106;11.548;2022-12-18T11:34:08;-0.60;99.90
29813;DHT22;16707;48.106;11.548;2022-12-18T11:36:40;-0.50;99.90
29813;DHT22;16707;48.106;11.548;2022-12-18T11:39:17;-0.80;99.90
29813;DHT22;16707;48.106;11.548;2022-12-18T11:41:51;-0.70;99.90
29813;DHT22;16707;48.106;11.548;2022-12-18T11:44:44;-0.50;99.90
29813;DHT22;16707;48.106;11.548;2022-12-18T11:47:19;-0.60;99.90
29813;DHT22;16707;48.106;11.548;2022-12-18T11:49:49;-0.70;99.90
29813;DHT22;16707;48.106;11.548;2022-12-18T11:52:19;-0.40;99.90
29813;DHT22;16707;48.106;11.548;2022-12-18T11:54:51;-0.40;99.90
29813;DHT22;16707;48.106;11.548;2022-12-18T11:57:29;-0.50;99.90
29813;DHT22;16707;48.106;11.548;2022-12-18T12:00:07;-0.70;99.90
29813;DHT22;16707;48.106;11.548;2022-12-18T12:03:04;-0.80;99.90
29813;DHT22;16707;48.106;11.548;2022-12-18T12:05:54;-1.10;99.90
29813;DHT22;16707;48.106;11.548;2022-12-18T12:08:34;-1.40;99.90
29813;DHT22;16707;48.106;11.548;2022-12-18T12:11:20;-1.40;99.90
29813;DHT22;16707;48.106;11.548;2022-12-18T12:14:03;-1.40;99.90
29813;DHT22;16707;48.106;11.548;2022-12-18T12:16:35;-1.00;99.90
29813;DHT22;16707;48.106;11.548;2022-12-18T12:19:15;-0.90;99.90
29813;DHT22;16707;48.106;11.548;2022-12-18T12:21:49;-0.90;99.90
29813;DHT22;16707;48.106;11.548;2022-12-18T12:24:29;-1.10;99.90
29813;DHT22;16707;48.106;11.548;2022-12-18T12:27:05;-1.10;99.90
29813;DHT22;16707;48.106;11.548;2022-12-18T12:29:46;-1.00;99.90
29813;DHT22;16707;48.106;11.548;2022-12-18T12:32:36;-0.80;99.90
29813;DHT22;16707;48.106;11.548;2022-12-18T12:35:19;-0.90;99.90
29813;DHT22;16707;48.106;11.548;2022-12-18T12:37:55;-1.20;99.90
29813;DHT22;16707;48.106;11.548;2022-12-18T12:40:27;-1.30;99.90
29813;DHT22;16707;48.106;11.548;2022-12-18T12:42:59;-1.20;99.90
29813;DHT22;16707;48.106;11.548;2022-12-18T12:45:43;-1.00;99.90
29813;DHT22;16707;48.106;11.548;2022-12-18T12:48:18;-0.90;99.90
29813;DHT22;16707;48.106;11.548;2022-12-18T12:50:49;-0.90;99.90
29813;DHT22;16707;48.106;11.548;2022-12-18T12:53:26;-0.90;99.90
29813;DHT22;16707;48.106;11.548;2022-12-18T12:55:57;-0.90;99.90
29813;DHT22;16707;48.106;11.548;2022-12-18T12:58:32;-0.80;99.90
29813;DHT22;16707;48.106;11.548;2022-12-18T13:01:08;-0.80;99.90
29813;DHT22;16707;48.106;11.548;2022-12-18T13:03:43;-0.80;99.90
29813;DHT22;16707;48.106;11.548;2022-12-18T13:06:29;-0.70;99.90
29813;DHT22;16707;48.106;11.548;2022-12-18T13:09:25;-1.40;99.90
29813;DHT22;16707;48.106;11.548;2022-12-18T13:12:08;-1.80;99.90
29813;DHT22;16707;48.106;11.548;2022-12-18T13:15:12;-2.20;99.90
29813;DHT22;16707;48.106;11.548;2022-12-18T13:17:42;-2.50;99.90
29813;DHT22;16707;48.106;11.548;2022-12-18T13:20:11;-2.60;99.90
29813;DHT22;16707;48.106;11.548;2022-12-18T13:22:42;-2.90;99.90
29813;DHT22;16707;48.106;11.548;2022-12-18T13:25:30;-2.90;99.90
29813;DHT22;16707;48.106;11.548;2022-12-18T13:28:10;-3.00;99.90
29813;DHT22;16707;48.106;11.548;2022-12-18T13:30:52;-2.60;99.90
29813;DHT22;16707;48.106;11.548;2022-12-18T13:33:38;-2.20;99.90
29813;DHT22;16707;48.106;11.548;2022-12-18T13:36:16;-2.20;99.90
29813;DHT22;16707;48.106;11.548;2022-12-18T13:38:44;-2.20;99.90
29813;DHT22;16707;48.106;11.548;2022-12-18T13:41:25;-2.20;99.90
29813;DHT22;16707;48.106;11.548;2022-12-18T13:43:54;-2.10;99.90
29813;DHT22;16707;48.106;11.548;2022-12-18T13:46:27;-2.00;99.90
29813;DHT22;16707;48.106;11.548;2022-12-18T13:48:58;-1.90;99.90
29813;DHT22;16707;48.106;11.548;2022-12-18T13:51:27;-1.90;99.90
29813;DHT22;16707;48.106;11.548;2022-12-18T13:53:58;-2.00;99.90
29813;DHT22;16707;48.106;11.548;2022-12-18T13:56:27;-2.00;99.90
29813;DHT22;16707;48.106;11.548;2022-12-18T13:59:08;-1.90;99.90
29813;DHT22;16707;48.106;11.548;2022-12-18T14:01:47;-1.80;99.90
29813;DHT22;16707;48.106;11.548;2022-12-18T14:04:26;-2.00;99.90
29813;DHT22;16707;48.106;11.548;2022-12-18T14:06:56;-2.10;99.90
29813;DHT22;16707;48.106;11.548;2022-12-18T14:09:28;-2.50;99.90
29813;DHT22;16707;48.106;11.548;2022-12-18T14:11:57;-2.70;99.90
29813;DHT22;16707;48.106;11.548;2022-12-18T14:14:41;-3.00;99.90
29813;DHT22;16707;48.106;11.548;2022-12-18T14:17:11;-3.30;99.90
29813;DHT22;16707;48.106;11.548;2022-12-18T14:19:42;-3.30;99.90
29813;DHT22;16707;48.106;11.548;2022-12-18T14:22:18;-3.10;99.90
29813;DHT22;16707;48.106;11.548;2022-12-18T14:24:46;-3.10;99.90
29813;DHT22;16707;48.106;11.548;2022-12-18T14:27:21;-2.90;99.90
29813;DHT22;16707;48.106;11.548;2022-12-18T14:29:51;-3.00;99.90
29813;DHT22;16707;48.106;11.548;2022-12-18T14:32:20;-2.90;99.90
29813;DHT22;16707;48.106;11.548;2022-12-18T14:34:52;-3.30;99.90
29813;DHT22;16707;48.106;11.548;2022-12-18T14:37:22;-3.20;99.90
29813;DHT22;16707;48.106;11.548;2022-12-18T14:39:57;-3.20;99.90
29813;DHT22;16707;48.106;11.548;2022-12-18T14:42:25;-3.00;99.90
29813;DHT22;16707;48.106;11.548;2022-12-18T14:47:55;-3.00;99.90
29813;DHT22;16707;48.106;11.548;2022-12-18T14:50:24;-3.10;99.90
29813;DHT22;16707;48.106;11.548;2022-12-18T14:52:52;-2.90;99.90
29813;DHT22;16707;48.106;11.548;2022-12-18T14:55:20;-2.70;99.90
29813;DHT22;16707;48.106;11.548;2022-12-18T14:57:51;-2.80;99.90
29813;DHT22;16707;48.106;11.548;2022-12-18T15:00:20;-3.30;99.90
29813;DHT22;16707;48.106;11.548;2022-12-18T15:02:49;-3.30;99.90
29813;DHT22;16707;48.106;11.548;2022-12-18T15:05:20;-3.20;99.90
29813;DHT22;16707;48.106;11.548;2022-12-18T15:07:52;-3.20;99.90
29813;DHT22;16707;48.106;11.548;2022-12-18T15:10:20;-3.20;99.90
29813;DHT22;16707;48.106;11.548;2022-12-18T15:12:49;-3.20;99.90
29813;DHT22;16707;48.106;11.548;2022-12-18T15:15:49;-3.40;99.90
29813;DHT22;16707;48.106;11.548;2022-12-18T15:18:18;-3.60;99.90
29813;DHT22;16707;48.106;11.548;2022-12-18T15:20:49;-3.40;99.90
29813;DHT22;16707;48.106;11.548;2022-12-18T15:23:19;-3.20;99.90
29813;DHT22;16707;48.106;11.548;2022-12-18T15:25:48;-3.30;99.90
29813;DHT22;16707;48.106;11.548;2022-12-18T15:28:23;-3.20;99.90
29813;DHT22;16707;48.106;11.548;2022-12-18T15:31:01;-3.20;99.90
29813;DHT22;16707;48.106;11.548;2022-12-18T15:33:32;-3.30;99.90
29813;DHT22;16707;48.106;11.548;2022-12-18T15:36:02;-3.20;99.90
29813;DHT22;16707;48.106;11.548;2022-12-18T15:38:30;-3.10;99.90
29813;DHT22;16707;48.106;11.548;2022-12-18T15:40:57;-3.10;99.90
29813;DHT22;16707;48.106;11.548;2022-12-18T15:43:26;-3.10;99.90
29813;DHT22;16707;48.106;11.548;2022-12-18T15:46:02;-3.10;99.90